sensor_id;sensor_type;location;lat;lon;timestamp;P1;durP1;ratioP1;P2;durP2;ratioP2
70459;SDS011;57920;54.796;9.430;2023-02-01T00:01:53;2.53;;;1.53;;
70459;SDS011;57920;54.796;9.430;2023-02-01T00:04:19;4.97;;;1.77;;
70459;SDS011;57920;54.796;9.430;2023-02-01T00:06:45;4.43;;;1.87;;
70459;SDS011;57920;54.796;9.430;2023-02-01T00:09:11;5.17;;;1.93;;
70459;SDS011;57920;54.796;9.430;2023-02-01T00:11:37;3.07;;;1.43;;
70459;SDS011;57920;54.796;9.430;2023-02-01T00:14:03;4.23;;;2.07;;
70459;SDS011;57920;54.796;9.430;2023-02-01T00:16:29;3.50;;;1.77;;
70459;SDS011;57920;54.796;9.430;2023-02-01T00:18:56;2.27;;;1.57;;
70459;SDS011;57920;54.796;9.430;2023-02-01T00:21:34;4.83;;;2.17;;
70459;SDS011;57920;54.796;9.430;2023-02-01T00:24:00;4.57;;;1.83;;
70459;SDS011;57920;54.796;9.430;2023-02-01T00:26:27;7.13;;;2.30;;
70459;SDS011;57920;54.796;9.430;2023-02-01T00:28:57;4.20;;;1.80;;
70459;SDS011;57920;54.796;9.430;2023-02-01T00:31:22;3.07;;;1.67;;
70459;SDS011;57920;54.796;9.430;2023-02-01T00:33:48;5.83;;;1.93;;
70459;SDS011;57920;54.796;9.430;2023-02-01T00:36:14;6.90;;;1.87;;
70459;SDS011;57920;54.796;9.430;2023-02-01T00:38:40;3.37;;;1.70;;
70459;SDS011;57920;54.796;9.430;2023-02-01T00:41:06;5.90;;;2.03;;
70459;SDS011;57920;54.796;9.430;2023-02-01T00:43:35;2.50;;;1.40;;
70459;SDS011;57920;54.796;9.430;2023-02-01T00:46:01;4.07;;;1.80;;
70459;SDS011;57920;54.796;9.430;2023-02-01T00:48:27;3.97;;;2.13;;
70459;SDS011;57920;54.796;9.430;2023-02-01T00:50:53;2.80;;;1.40;;
70459;SDS011;57920;54.796;9.430;2023-02-01T00:53:18;4.07;;;1.83;;
70459;SDS011;57920;54.796;9.430;2023-02-01T00:55:45;3.80;;;1.83;;
70459;SDS011;57920;54.796;9.430;2023-02-01T00:58:11;4.40;;;2.20;;
70459;SDS011;57920;54.796;9.430;2023-02-01T01:00:37;4.87;;;1.60;;
70459;SDS011;57920;54.796;9.430;2023-02-01T01:03:03;4.20;;;1.77;;
70459;SDS011;57920;54.796;9.430;2023-02-01T01:05:42;2.50;;;1.53;;
70459;SDS011;57920;54.796;9.430;2023-02-01T01:08:11;3.57;;;1.53;;
70459;SDS011;57920;54.796;9.430;2023-02-01T01:10:37;4.47;;;1.77;;
70459;SDS011;57920;54.796;9.430;2023-02-01T01:13:03;3.47;;;1.67;;
70459;SDS011;57920;54.796;9.430;2023-02-01T01:15:28;4.13;;;1.63;;
70459;SDS011;57920;54.796;9.430;2023-02-01T01:17:54;3.67;;;1.57;;
70459;SDS011;57920;54.796;9.430;2023-02-01T01:20:19;4.40;;;1.80;;
70459;SDS011;57920;54.796;9.430;2023-02-01T01:22:46;3.13;;;1.57;;
70459;SDS011;57920;54.796;9.430;2023-02-01T01:25:13;4.27;;;1.77;;
70459;SDS011;57920;54.796;9.430;2023-02-01T01:27:38;2.73;;;1.80;;
70459;SDS011;57920;54.796;9.430;2023-02-01T01:30:04;4.27;;;1.80;;
70459;SDS011;57920;54.796;9.430;2023-02-01T01:32:31;4.17;;;2.07;;
70459;SDS011;57920;54.796;9.430;2023-02-01T01:34:56;2.83;;;1.40;;
70459;SDS011;57920;54.796;9.430;2023-02-01T01:37:22;4.53;;;1.83;;
70459;SDS011;57920;54.796;9.430;2023-02-01T01:39:47;2.37;;;1.43;;
70459;SDS011;57920;54.796;9.430;2023-02-01T01:42:13;4.77;;;2.30;;
70459;SDS011;57920;54.796;9.430;2023-02-01T01:44:59;2.63;;;1.83;;
70459;SDS011;57920;54.796;9.430;2023-02-01T01:47:29;3.40;;;1.70;;
70459;SDS011;57920;54.796;9.430;2023-02-01T01:49:58;2.97;;;1.60;;
70459;SDS011;57920;54.796;9.430;2023-02-01T01:52:25;3.63;;;1.67;;
70459;SDS011;57920;54.796;9.430;2023-02-01T01:54:51;3.20;;;1.97;;
70459;SDS011;57920;54.796;9.430;2023-02-01T01:57:19;4.83;;;2.00;;
70459;SDS011;57920;54.796;9.430;2023-02-01T01:59:56;5.63;;;1.63;;
70459;SDS011;57920;54.796;9.430;2023-02-01T02:02:32;4.10;;;2.13;;
70459;SDS011;57920;54.796;9.430;2023-02-01T02:04:58;2.97;;;1.47;;
70459;SDS011;57920;54.796;9.430;2023-02-01T02:07:25;3.73;;;2.00;;
70459;SDS011;57920;54.796;9.430;2023-02-01T02:09:53;5.10;;;1.90;;
70459;SDS011;57920;54.796;9.430;2023-02-01T02:12:19;3.03;;;1.80;;
70459;SDS011;57920;54.796;9.430;2023-02-01T02:14:45;5.23;;;1.97;;
70459;SDS011;57920;54.796;9.430;2023-02-01T02:19:48;4.23;;;1.80;;
70459;SDS011;57920;54.796;9.430;2023-02-01T02:25:27;3.77;;;1.80;;
70459;SDS011;57920;54.796;9.430;2023-02-01T02:34:05;3.20;;;2.10;;
70459;SDS011;57920;54.796;9.430;2023-02-01T02:36:49;4.30;;;2.50;;
70459;SDS011;57920;54.796;9.430;2023-02-01T02:41:55;6.03;;;2.57;;
70459;SDS011;57920;54.796;9.430;2023-02-01T02:44:58;6.23;;;2.50;;
70459;SDS011;57920;54.796;9.430;2023-02-01T02:47:55;4.23;;;2.03;;
70459;SDS011;57920;54.796;9.430;2023-02-01T02:51:08;4.23;;;2.33;;
70459;SDS011;57920;54.796;9.430;2023-02-01T02:56:44;3.60;;;2.03;;
70459;SDS011;57920;54.796;9.430;2023-02-01T02:59:28;5.60;;;2.30;;
70459;SDS011;57920;54.796;9.430;2023-02-01T03:02:15;8.73;;;3.33;;
70459;SDS011;57920;54.796;9.430;2023-02-01T03:05:00;6.97;;;2.90;;
70459;SDS011;57920;54.796;9.430;2023-02-01T03:13:06;4.73;;;2.13;;
70459;SDS011;57920;54.796;9.430;2023-02-01T03:15:39;6.90;;;3.37;;
70459;SDS011;57920;54.796;9.430;2023-02-01T03:18:19;7.63;;;3.30;;
70459;SDS011;57920;54.796;9.430;2023-02-01T03:20:56;7.60;;;3.20;;
70459;SDS011;57920;54.796;9.430;2023-02-01T03:23:27;7.47;;;3.00;;
70459;SDS011;57920;54.796;9.430;2023-02-01T03:25:59;5.47;;;2.77;;
70459;SDS011;57920;54.796;9.430;2023-02-01T03:28:25;5.70;;;2.37;;
70459;SDS011;57920;54.796;9.430;2023-02-01T03:30:55;4.87;;;2.57;;
70459;SDS011;57920;54.796;9.430;2023-02-01T03:33:21;3.37;;;2.07;;
70459;SDS011;57920;54.796;9.430;2023-02-01T03:41:03;7.53;;;3.00;;
70459;SDS011;57920;54.796;9.430;2023-02-01T03:43:41;6.13;;;3.10;;
70459;SDS011;57920;54.796;9.430;2023-02-01T03:46:17;10.23;;;3.33;;
70459;SDS011;57920;54.796;9.430;2023-02-01T03:48:49;5.73;;;2.30;;
70459;SDS011;57920;54.796;9.430;2023-02-01T03:51:16;5.90;;;3.00;;
70459;SDS011;57920;54.796;9.430;2023-02-01T03:53:45;5.73;;;2.60;;
70459;SDS011;57920;54.796;9.430;2023-02-01T03:56:13;5.77;;;2.90;;
70459;SDS011;57920;54.796;9.430;2023-02-01T03:58:42;8.37;;;3.10;;
70459;SDS011;57920;54.796;9.430;2023-02-01T04:01:22;2.93;;;2.20;;
70459;SDS011;57920;54.796;9.430;2023-02-01T04:03:48;6.40;;;2.93;;
70459;SDS011;57920;54.796;9.430;2023-02-01T04:06:14;6.50;;;2.97;;
70459;SDS011;57920;54.796;9.430;2023-02-01T04:08:40;4.53;;;2.73;;
70459;SDS011;57920;54.796;9.430;2023-02-01T04:11:05;5.60;;;3.00;;
70459;SDS011;57920;54.796;9.430;2023-02-01T04:13:31;7.03;;;2.37;;
70459;SDS011;57920;54.796;9.430;2023-02-01T04:15:56;5.70;;;3.27;;
70459;SDS011;57920;54.796;9.430;2023-02-01T04:18:22;4.60;;;2.57;;
70459;SDS011;57920;54.796;9.430;2023-02-01T04:20:47;5.40;;;2.50;;
70459;SDS011;57920;54.796;9.430;2023-02-01T04:23:13;7.07;;;3.37;;
70459;SDS011;57920;54.796;9.430;2023-02-01T04:25:40;8.73;;;3.17;;
70459;SDS011;57920;54.796;9.430;2023-02-01T04:28:06;7.27;;;3.10;;
70459;SDS011;57920;54.796;9.430;2023-02-01T04:30:32;8.17;;;3.63;;
70459;SDS011;57920;54.796;9.430;2023-02-01T04:32:57;8.57;;;3.53;;
70459;SDS011;57920;54.796;9.430;2023-02-01T04:35:23;6.27;;;3.27;;
70459;SDS011;57920;54.796;9.430;2023-02-01T04:37:48;6.57;;;2.73;;
70459;SDS011;57920;54.796;9.430;2023-02-01T04:40:14;6.97;;;3.33;;
70459;SDS011;57920;54.796;9.430;2023-02-01T04:42:40;5.37;;;2.80;;
70459;SDS011;57920;54.796;9.430;2023-02-01T04:45:05;6.20;;;2.77;;
70459;SDS011;57920;54.796;9.430;2023-02-01T04:47:31;5.93;;;2.50;;
70459;SDS011;57920;54.796;9.430;2023-02-01T04:49:57;7.50;;;3.03;;
70459;SDS011;57920;54.796;9.430;2023-02-01T04:52:22;6.03;;;2.87;;
70459;SDS011;57920;54.796;9.430;2023-02-01T04:54:48;7.13;;;3.57;;
70459;SDS011;57920;54.796;9.430;2023-02-01T04:57:13;8.33;;;3.30;;
70459;SDS011;57920;54.796;9.430;2023-02-01T04:59:40;7.03;;;3.27;;
70459;SDS011;57920;54.796;9.430;2023-02-01T05:02:05;7.50;;;3.27;;
70459;SDS011;57920;54.796;9.430;2023-02-01T05:04:31;7.43;;;3.67;;
70459;SDS011;57920;54.796;9.430;2023-02-01T05:06:56;6.30;;;2.47;;
70459;SDS011;57920;54.796;9.430;2023-02-01T05:09:22;6.90;;;3.03;;
70459;SDS011;57920;54.796;9.430;2023-02-01T05:11:48;5.73;;;2.67;;
70459;SDS011;57920;54.796;9.430;2023-02-01T05:14:33;3.97;;;2.70;;
70459;SDS011;57920;54.796;9.430;2023-02-01T05:16:58;7.37;;;2.80;;
70459;SDS011;57920;54.796;9.430;2023-02-01T05:19:24;9.07;;;3.03;;
70459;SDS011;57920;54.796;9.430;2023-02-01T05:21:49;5.77;;;2.50;;
70459;SDS011;57920;54.796;9.430;2023-02-01T05:24:15;5.30;;;2.83;;
70459;SDS011;57920;54.796;9.430;2023-02-01T05:26:47;6.73;;;3.23;;
70459;SDS011;57920;54.796;9.430;2023-02-01T05:29:13;4.50;;;2.03;;
70459;SDS011;57920;54.796;9.430;2023-02-01T05:31:39;6.53;;;3.27;;
70459;SDS011;57920;54.796;9.430;2023-02-01T05:34:05;6.67;;;3.20;;
70459;SDS011;57920;54.796;9.430;2023-02-01T05:36:31;6.33;;;2.20;;
70459;SDS011;57920;54.796;9.430;2023-02-01T05:38:57;8.03;;;3.33;;
70459;SDS011;57920;54.796;9.430;2023-02-01T05:41:22;6.63;;;2.67;;
70459;SDS011;57920;54.796;9.430;2023-02-01T05:43:48;8.07;;;2.83;;
70459;SDS011;57920;54.796;9.430;2023-02-01T05:46:14;7.67;;;3.17;;
70459;SDS011;57920;54.796;9.430;2023-02-01T05:48:40;5.57;;;2.60;;
70459;SDS011;57920;54.796;9.430;2023-02-01T05:51:05;6.03;;;3.10;;
70459;SDS011;57920;54.796;9.430;2023-02-01T05:53:31;6.97;;;2.80;;
70459;SDS011;57920;54.796;9.430;2023-02-01T05:55:57;4.97;;;2.60;;
70459;SDS011;57920;54.796;9.430;2023-02-01T05:58:22;4.17;;;2.43;;
70459;SDS011;57920;54.796;9.430;2023-02-01T06:00:48;5.57;;;2.43;;
70459;SDS011;57920;54.796;9.430;2023-02-01T06:03:13;5.73;;;2.87;;
70459;SDS011;57920;54.796;9.430;2023-02-01T06:05:39;6.37;;;2.90;;
70459;SDS011;57920;54.796;9.430;2023-02-01T06:08:04;6.13;;;2.87;;
70459;SDS011;57920;54.796;9.430;2023-02-01T06:10:32;4.47;;;2.80;;
70459;SDS011;57920;54.796;9.430;2023-02-01T06:12:58;5.27;;;2.90;;
70459;SDS011;57920;54.796;9.430;2023-02-01T06:15:23;6.27;;;3.23;;
70459;SDS011;57920;54.796;9.430;2023-02-01T06:17:49;6.47;;;2.40;;
70459;SDS011;57920;54.796;9.430;2023-02-01T06:20:15;5.77;;;2.37;;
70459;SDS011;57920;54.796;9.430;2023-02-01T06:22:41;5.30;;;2.37;;
70459;SDS011;57920;54.796;9.430;2023-02-01T06:25:07;5.43;;;2.67;;
70459;SDS011;57920;54.796;9.430;2023-02-01T06:27:34;4.30;;;2.53;;
70459;SDS011;57920;54.796;9.430;2023-02-01T06:30:01;5.33;;;2.47;;
70459;SDS011;57920;54.796;9.430;2023-02-01T06:32:28;5.07;;;2.20;;
70459;SDS011;57920;54.796;9.430;2023-02-01T06:34:54;5.33;;;2.63;;
70459;SDS011;57920;54.796;9.430;2023-02-01T06:37:20;5.67;;;2.60;;
70459;SDS011;57920;54.796;9.430;2023-02-01T06:39:47;3.60;;;2.20;;
70459;SDS011;57920;54.796;9.430;2023-02-01T06:42:13;5.70;;;2.30;;
70459;SDS011;57920;54.796;9.430;2023-02-01T06:44:39;5.47;;;2.90;;
70459;SDS011;57920;54.796;9.430;2023-02-01T06:47:04;5.67;;;2.47;;
70459;SDS011;57920;54.796;9.430;2023-02-01T06:49:36;7.60;;;2.80;;
70459;SDS011;57920;54.796;9.430;2023-02-01T06:52:02;4.60;;;2.37;;
70459;SDS011;57920;54.796;9.430;2023-02-01T06:54:28;5.10;;;2.87;;
70459;SDS011;57920;54.796;9.430;2023-02-01T06:56:54;7.20;;;2.53;;
70459;SDS011;57920;54.796;9.430;2023-02-01T06:59:20;7.33;;;2.80;;
70459;SDS011;57920;54.796;9.430;2023-02-01T07:01:45;3.40;;;2.00;;
70459;SDS011;57920;54.796;9.430;2023-02-01T07:04:11;3.40;;;2.00;;
70459;SDS011;57920;54.796;9.430;2023-02-01T07:06:37;5.27;;;2.80;;
70459;SDS011;57920;54.796;9.430;2023-02-01T07:09:04;7.87;;;2.97;;
70459;SDS011;57920;54.796;9.430;2023-02-01T07:11:30;6.10;;;2.30;;
70459;SDS011;57920;54.796;9.430;2023-02-01T07:13:56;5.37;;;2.60;;
70459;SDS011;57920;54.796;9.430;2023-02-01T07:16:22;8.33;;;2.83;;
70459;SDS011;57920;54.796;9.430;2023-02-01T07:19:00;8.77;;;2.70;;
70459;SDS011;57920;54.796;9.430;2023-02-01T07:21:26;6.07;;;2.93;;
70459;SDS011;57920;54.796;9.430;2023-02-01T07:23:53;8.87;;;3.10;;
70459;SDS011;57920;54.796;9.430;2023-02-01T07:26:19;5.10;;;2.33;;
70459;SDS011;57920;54.796;9.430;2023-02-01T07:28:44;6.97;;;3.20;;
70459;SDS011;57920;54.796;9.430;2023-02-01T07:31:12;5.60;;;2.67;;
70459;SDS011;57920;54.796;9.430;2023-02-01T07:33:41;8.17;;;3.07;;
70459;SDS011;57920;54.796;9.430;2023-02-01T07:36:07;11.43;;;2.70;;
70459;SDS011;57920;54.796;9.430;2023-02-01T07:38:40;10.07;;;2.70;;
70459;SDS011;57920;54.796;9.430;2023-02-01T07:41:06;7.30;;;3.87;;
70459;SDS011;57920;54.796;9.430;2023-02-01T07:43:32;9.83;;;3.77;;
70459;SDS011;57920;54.796;9.430;2023-02-01T07:45:58;9.17;;;3.37;;
70459;SDS011;57920;54.796;9.430;2023-02-01T07:48:24;12.80;;;3.80;;
70459;SDS011;57920;54.796;9.430;2023-02-01T07:51:04;13.07;;;3.90;;
70459;SDS011;57920;54.796;9.430;2023-02-01T07:53:33;11.97;;;3.43;;
70459;SDS011;57920;54.796;9.430;2023-02-01T07:55:59;8.53;;;3.33;;
70459;SDS011;57920;54.796;9.430;2023-02-01T07:58:25;6.47;;;3.80;;
70459;SDS011;57920;54.796;9.430;2023-02-01T08:00:52;9.70;;;4.40;;
70459;SDS011;57920;54.796;9.430;2023-02-01T08:03:36;11.77;;;4.40;;
70459;SDS011;57920;54.796;9.430;2023-02-01T08:06:02;7.13;;;3.80;;
70459;SDS011;57920;54.796;9.430;2023-02-01T08:08:28;12.67;;;4.27;;
70459;SDS011;57920;54.796;9.430;2023-02-01T08:11:01;7.63;;;3.73;;
70459;SDS011;57920;54.796;9.430;2023-02-01T08:13:29;6.10;;;3.67;;
70459;SDS011;57920;54.796;9.430;2023-02-01T08:15:58;11.17;;;3.40;;
70459;SDS011;57920;54.796;9.430;2023-02-01T08:18:31;10.40;;;3.77;;
70459;SDS011;57920;54.796;9.430;2023-02-01T08:21:02;7.20;;;3.60;;
70459;SDS011;57920;54.796;9.430;2023-02-01T08:23:32;9.87;;;3.70;;
70459;SDS011;57920;54.796;9.430;2023-02-01T08:26:09;9.63;;;3.10;;
70459;SDS011;57920;54.796;9.430;2023-02-01T08:28:37;9.30;;;3.87;;
70459;SDS011;57920;54.796;9.430;2023-02-01T08:31:04;8.93;;;2.63;;
70459;SDS011;57920;54.796;9.430;2023-02-01T08:33:31;10.03;;;3.70;;
70459;SDS011;57920;54.796;9.430;2023-02-01T08:35:57;5.23;;;2.47;;
70459;SDS011;57920;54.796;9.430;2023-02-01T08:38:22;5.33;;;2.53;;
70459;SDS011;57920;54.796;9.430;2023-02-01T08:40:48;7.23;;;2.37;;
70459;SDS011;57920;54.796;9.430;2023-02-01T08:43:13;8.47;;;3.73;;
70459;SDS011;57920;54.796;9.430;2023-02-01T08:45:39;10.67;;;4.53;;
70459;SDS011;57920;54.796;9.430;2023-02-01T08:48:05;6.80;;;3.03;;
70459;SDS011;57920;54.796;9.430;2023-02-01T08:50:31;11.40;;;4.47;;
70459;SDS011;57920;54.796;9.430;2023-02-01T08:52:56;10.17;;;4.23;;
70459;SDS011;57920;54.796;9.430;2023-02-01T08:55:22;10.87;;;4.20;;
70459;SDS011;57920;54.796;9.430;2023-02-01T08:57:48;10.63;;;5.00;;
70459;SDS011;57920;54.796;9.430;2023-02-01T09:00:14;71.23;;;13.77;;
70459;SDS011;57920;54.796;9.430;2023-02-01T09:02:41;122.10;;;22.90;;
70459;SDS011;57920;54.796;9.430;2023-02-01T09:05:07;96.80;;;20.00;;
70459;SDS011;57920;54.796;9.430;2023-02-01T09:07:33;84.83;;;19.93;;
70459;SDS011;57920;54.796;9.430;2023-02-01T09:09:59;107.53;;;23.00;;
70459;SDS011;57920;54.796;9.430;2023-02-01T09:12:27;63.57;;;14.17;;
70459;SDS011;57920;54.796;9.430;2023-02-01T09:14:54;58.77;;;12.60;;
70459;SDS011;57920;54.796;9.430;2023-02-01T09:17:21;43.73;;;10.63;;
70459;SDS011;57920;54.796;9.430;2023-02-01T09:19:46;34.47;;;9.23;;
70459;SDS011;57920;54.796;9.430;2023-02-01T09:22:12;28.07;;;7.70;;
70459;SDS011;57920;54.796;9.430;2023-02-01T09:24:39;28.70;;;9.17;;
70459;SDS011;57920;54.796;9.430;2023-02-01T09:27:04;28.53;;;8.57;;
70459;SDS011;57920;54.796;9.430;2023-02-01T09:29:30;29.13;;;8.30;;
70459;SDS011;57920;54.796;9.430;2023-02-01T09:31:55;21.37;;;7.13;;
70459;SDS011;57920;54.796;9.430;2023-02-01T09:34:21;27.40;;;7.70;;
70459;SDS011;57920;54.796;9.430;2023-02-01T09:36:47;17.47;;;6.77;;
70459;SDS011;57920;54.796;9.430;2023-02-01T09:39:12;17.03;;;6.20;;
70459;SDS011;57920;54.796;9.430;2023-02-01T09:47:14;18.10;;;5.00;;
70459;SDS011;57920;54.796;9.430;2023-02-01T09:49:50;14.20;;;5.87;;
70459;SDS011;57920;54.796;9.430;2023-02-01T09:52:31;11.37;;;4.80;;
70459;SDS011;57920;54.796;9.430;2023-02-01T09:55:04;19.53;;;5.73;;
70459;SDS011;57920;54.796;9.430;2023-02-01T09:57:59;13.70;;;4.27;;
70459;SDS011;57920;54.796;9.430;2023-02-01T10:00:33;12.97;;;5.13;;
70459;SDS011;57920;54.796;9.430;2023-02-01T10:03:01;14.67;;;6.17;;
70459;SDS011;57920;54.796;9.430;2023-02-01T10:05:53;15.50;;;5.43;;
70459;SDS011;57920;54.796;9.430;2023-02-01T10:08:26;17.80;;;4.93;;
70459;SDS011;57920;54.796;9.430;2023-02-01T10:10:59;12.80;;;5.23;;
70459;SDS011;57920;54.796;9.430;2023-02-01T10:16:28;15.17;;;5.57;;
70459;SDS011;57920;54.796;9.430;2023-02-01T10:19:18;14.83;;;4.97;;
70459;SDS011;57920;54.796;9.430;2023-02-01T10:22:08;6.77;;;3.77;;
70459;SDS011;57920;54.796;9.430;2023-02-01T10:29:51;8.77;;;3.60;;
70459;SDS011;57920;54.796;9.430;2023-02-01T10:32:22;10.97;;;3.63;;
70459;SDS011;57920;54.796;9.430;2023-02-01T10:34:56;7.43;;;3.77;;
70459;SDS011;57920;54.796;9.430;2023-02-01T10:37:28;9.87;;;4.33;;
70459;SDS011;57920;54.796;9.430;2023-02-01T10:39:58;12.30;;;5.17;;
70459;SDS011;57920;54.796;9.430;2023-02-01T10:42:53;7.07;;;3.50;;
70459;SDS011;57920;54.796;9.430;2023-02-01T10:45:22;8.10;;;3.60;;
70459;SDS011;57920;54.796;9.430;2023-02-01T10:47:50;8.83;;;3.87;;
70459;SDS011;57920;54.796;9.430;2023-02-01T10:50:33;9.93;;;4.10;;
70459;SDS011;57920;54.796;9.430;2023-02-01T10:55:40;9.70;;;5.00;;
70459;SDS011;57920;54.796;9.430;2023-02-01T10:58:25;12.03;;;4.93;;
70459;SDS011;57920;54.796;9.430;2023-02-01T11:01:06;8.23;;;3.63;;
70459;SDS011;57920;54.796;9.430;2023-02-01T11:03:42;6.63;;;3.60;;
70459;SDS011;57920;54.796;9.430;2023-02-01T11:08:52;11.30;;;4.67;;
70459;SDS011;57920;54.796;9.430;2023-02-01T11:11:20;13.50;;;5.00;;
70459;SDS011;57920;54.796;9.430;2023-02-01T11:13:55;12.53;;;4.33;;
70459;SDS011;57920;54.796;9.430;2023-02-01T11:16:35;10.27;;;4.57;;
70459;SDS011;57920;54.796;9.430;2023-02-01T11:19:07;14.00;;;5.33;;
70459;SDS011;57920;54.796;9.430;2023-02-01T11:21:39;13.37;;;4.57;;
70459;SDS011;57920;54.796;9.430;2023-02-01T11:24:16;28.83;;;6.87;;
70459;SDS011;57920;54.796;9.430;2023-02-01T11:26:56;15.70;;;5.20;;
70459;SDS011;57920;54.796;9.430;2023-02-01T11:29:23;20.37;;;5.43;;
70459;SDS011;57920;54.796;9.430;2023-02-01T11:31:54;9.27;;;4.73;;
70459;SDS011;57920;54.796;9.430;2023-02-01T11:34:22;10.63;;;4.80;;
70459;SDS011;57920;54.796;9.430;2023-02-01T11:36:51;13.10;;;4.50;;
70459;SDS011;57920;54.796;9.430;2023-02-01T11:39:28;13.43;;;3.60;;
70459;SDS011;57920;54.796;9.430;2023-02-01T11:42:04;6.40;;;3.60;;
70459;SDS011;57920;54.796;9.430;2023-02-01T11:44:42;10.17;;;4.20;;
70459;SDS011;57920;54.796;9.430;2023-02-01T11:49:54;7.17;;;4.57;;
70459;SDS011;57920;54.796;9.430;2023-02-01T11:52:45;11.77;;;4.40;;
70459;SDS011;57920;54.796;9.430;2023-02-01T12:19:43;9.40;;;3.43;;
70459;SDS011;57920;54.796;9.430;2023-02-01T12:22:14;5.90;;;2.90;;
70459;SDS011;57920;54.796;9.430;2023-02-01T12:31:24;3.37;;;2.03;;
70459;SDS011;57920;54.796;9.430;2023-02-01T12:39:58;5.73;;;3.33;;
70459;SDS011;57920;54.796;9.430;2023-02-01T12:42:48;5.27;;;2.70;;
70459;SDS011;57920;54.796;9.430;2023-02-01T12:45:25;8.73;;;3.13;;
70459;SDS011;57920;54.796;9.430;2023-02-01T12:48:05;7.30;;;2.93;;
70459;SDS011;57920;54.796;9.430;2023-02-01T12:50:59;77.97;;;64.97;;
70459;SDS011;57920;54.796;9.430;2023-02-01T13:02:06;6.67;;;2.73;;
70459;SDS011;57920;54.796;9.430;2023-02-01T13:15:44;7.20;;;3.03;;
70459;SDS011;57920;54.796;9.430;2023-02-01T13:18:22;10.17;;;3.03;;
70459;SDS011;57920;54.796;9.430;2023-02-01T13:23:39;53.70;;;9.83;;
70459;SDS011;57920;54.796;9.430;2023-02-01T13:26:06;40.87;;;11.53;;
70459;SDS011;57920;54.796;9.430;2023-02-01T13:42:29;29.13;;;8.23;;
70459;SDS011;57920;54.796;9.430;2023-02-01T13:45:05;32.70;;;8.27;;
70459;SDS011;57920;54.796;9.430;2023-02-01T13:47:40;17.97;;;6.33;;
70459;SDS011;57920;54.796;9.430;2023-02-01T13:50:25;29.73;;;8.13;;
70459;SDS011;57920;54.796;9.430;2023-02-01T13:52:58;37.00;;;8.83;;
70459;SDS011;57920;54.796;9.430;2023-02-01T13:55:43;24.87;;;7.23;;
70459;SDS011;57920;54.796;9.430;2023-02-01T13:58:30;25.13;;;7.23;;
70459;SDS011;57920;54.796;9.430;2023-02-01T14:03:48;26.37;;;7.63;;
70459;SDS011;57920;54.796;9.430;2023-02-01T14:06:33;20.37;;;6.37;;
70459;SDS011;57920;54.796;9.430;2023-02-01T14:11:57;16.47;;;5.67;;
70459;SDS011;57920;54.796;9.430;2023-02-01T14:19:27;18.87;;;5.90;;
70459;SDS011;57920;54.796;9.430;2023-02-01T14:21:59;14.33;;;5.70;;
70459;SDS011;57920;54.796;9.430;2023-02-01T14:24:30;17.33;;;5.83;;
70459;SDS011;57920;54.796;9.430;2023-02-01T14:26:58;18.17;;;6.20;;
70459;SDS011;57920;54.796;9.430;2023-02-01T14:29:41;16.07;;;5.40;;
70459;SDS011;57920;54.796;9.430;2023-02-01T14:42:22;17.37;;;5.33;;
70459;SDS011;57920;54.796;9.430;2023-02-01T15:00:55;16.73;;;5.43;;
70459;SDS011;57920;54.796;9.430;2023-02-01T15:06:33;8.33;;;3.60;;
70459;SDS011;57920;54.796;9.430;2023-02-01T15:09:04;13.97;;;5.00;;
70459;SDS011;57920;54.796;9.430;2023-02-01T15:11:32;11.30;;;4.13;;
70459;SDS011;57920;54.796;9.430;2023-02-01T15:14:19;11.97;;;4.23;;
70459;SDS011;57920;54.796;9.430;2023-02-01T15:16:45;7.67;;;2.93;;
70459;SDS011;57920;54.796;9.430;2023-02-01T15:19:18;11.20;;;4.03;;
70459;SDS011;57920;54.796;9.430;2023-02-01T15:21:47;13.13;;;4.40;;
70459;SDS011;57920;54.796;9.430;2023-02-01T15:24:18;10.23;;;3.47;;
70459;SDS011;57920;54.796;9.430;2023-02-01T15:26:52;9.30;;;4.60;;
70459;SDS011;57920;54.796;9.430;2023-02-01T15:29:19;11.90;;;4.70;;
70459;SDS011;57920;54.796;9.430;2023-02-01T15:31:48;10.20;;;4.50;;
70459;SDS011;57920;54.796;9.430;2023-02-01T15:34:15;10.87;;;3.93;;
70459;SDS011;57920;54.796;9.430;2023-02-01T15:36:40;11.57;;;3.93;;
70459;SDS011;57920;54.796;9.430;2023-02-01T15:39:17;9.93;;;3.80;;
70459;SDS011;57920;54.796;9.430;2023-02-01T15:41:48;9.47;;;3.67;;
70459;SDS011;57920;54.796;9.430;2023-02-01T15:44:27;11.73;;;3.93;;
70459;SDS011;57920;54.796;9.430;2023-02-01T15:46:56;8.30;;;3.33;;
70459;SDS011;57920;54.796;9.430;2023-02-01T15:49:27;7.63;;;3.93;;
70459;SDS011;57920;54.796;9.430;2023-02-01T15:51:58;10.17;;;3.90;;
70459;SDS011;57920;54.796;9.430;2023-02-01T15:54:26;8.20;;;3.50;;
70459;SDS011;57920;54.796;9.430;2023-02-01T15:57:00;8.97;;;3.40;;
70459;SDS011;57920;54.796;9.430;2023-02-01T15:59:31;9.73;;;4.17;;
70459;SDS011;57920;54.796;9.430;2023-02-01T16:02:02;6.03;;;2.53;;
70459;SDS011;57920;54.796;9.430;2023-02-01T16:04:29;5.50;;;3.07;;
70459;SDS011;57920;54.796;9.430;2023-02-01T16:06:59;7.83;;;3.60;;
70459;SDS011;57920;54.796;9.430;2023-02-01T16:09:40;6.20;;;2.67;;
70459;SDS011;57920;54.796;9.430;2023-02-01T16:12:21;10.77;;;3.80;;
70459;SDS011;57920;54.796;9.430;2023-02-01T16:14:54;7.97;;;3.63;;
70459;SDS011;57920;54.796;9.430;2023-02-01T16:17:19;7.77;;;4.03;;
70459;SDS011;57920;54.796;9.430;2023-02-01T16:19:45;6.90;;;3.67;;
70459;SDS011;57920;54.796;9.430;2023-02-01T16:22:10;8.03;;;3.37;;
70459;SDS011;57920;54.796;9.430;2023-02-01T16:24:36;5.57;;;3.17;;
70459;SDS011;57920;54.796;9.430;2023-02-01T16:27:01;8.33;;;3.70;;
70459;SDS011;57920;54.796;9.430;2023-02-01T16:29:27;5.80;;;3.07;;
70459;SDS011;57920;54.796;9.430;2023-02-01T16:31:53;4.37;;;2.60;;
70459;SDS011;57920;54.796;9.430;2023-02-01T16:34:19;7.83;;;3.40;;
70459;SDS011;57920;54.796;9.430;2023-02-01T16:36:48;5.80;;;3.37;;
70459;SDS011;57920;54.796;9.430;2023-02-01T16:39:16;8.53;;;3.53;;
70459;SDS011;57920;54.796;9.430;2023-02-01T16:41:42;8.70;;;4.10;;
70459;SDS011;57920;54.796;9.430;2023-02-01T16:44:08;10.37;;;3.50;;
70459;SDS011;57920;54.796;9.430;2023-02-01T16:46:34;6.00;;;3.37;;
70459;SDS011;57920;54.796;9.430;2023-02-01T16:49:04;11.07;;;3.63;;
70459;SDS011;57920;54.796;9.430;2023-02-01T16:51:31;4.83;;;2.80;;
70459;SDS011;57920;54.796;9.430;2023-02-01T16:53:57;8.30;;;3.57;;
70459;SDS011;57920;54.796;9.430;2023-02-01T16:56:31;8.10;;;3.67;;
70459;SDS011;57920;54.796;9.430;2023-02-01T16:58:58;8.03;;;3.60;;
70459;SDS011;57920;54.796;9.430;2023-02-01T17:01:24;7.10;;;3.33;;
70459;SDS011;57920;54.796;9.430;2023-02-01T17:03:50;7.13;;;3.90;;
70459;SDS011;57920;54.796;9.430;2023-02-01T17:06:17;7.13;;;4.10;;
70459;SDS011;57920;54.796;9.430;2023-02-01T17:08:50;7.23;;;3.60;;
70459;SDS011;57920;54.796;9.430;2023-02-01T17:11:18;7.57;;;3.53;;
70459;SDS011;57920;54.796;9.430;2023-02-01T17:13:44;8.10;;;3.67;;
70459;SDS011;57920;54.796;9.430;2023-02-01T17:16:19;8.80;;;3.47;;
70459;SDS011;57920;54.796;9.430;2023-02-01T17:18:50;6.93;;;3.13;;
70459;SDS011;57920;54.796;9.430;2023-02-01T17:21:27;8.20;;;3.57;;
70459;SDS011;57920;54.796;9.430;2023-02-01T17:23:55;10.50;;;3.63;;
70459;SDS011;57920;54.796;9.430;2023-02-01T17:26:22;10.50;;;3.33;;
70459;SDS011;57920;54.796;9.430;2023-02-01T17:28:48;7.43;;;3.10;;
70459;SDS011;57920;54.796;9.430;2023-02-01T17:31:14;6.10;;;3.10;;
70459;SDS011;57920;54.796;9.430;2023-02-01T17:33:40;8.77;;;3.40;;
70459;SDS011;57920;54.796;9.430;2023-02-01T17:36:08;5.03;;;3.10;;
70459;SDS011;57920;54.796;9.430;2023-02-01T17:38:36;4.50;;;2.63;;
70459;SDS011;57920;54.796;9.430;2023-02-01T17:41:02;9.30;;;3.77;;
70459;SDS011;57920;54.796;9.430;2023-02-01T17:43:28;5.70;;;3.03;;